Diana, West Virginia
Current Conditions -  °F | °C
As of 8:15 AM on Friday 28 Nov 2014 (Local Time) from KW22 Reporting Station
Light Snow Light Snow  
Wind Chill: 25°   Ceiling: 3300
Heat Index: 25°   Visibility: 7mi
Dew Point: 19°   Wind: 3mph
Humidity: 80%   Direction: 270°W
Pressure: 30.31"   Gusts: NA
Location:  38.57°N, 80.44°W
Report Text: KW22 281315Z AUTO 27003KT 7SM -SN SCT015 BKN033 BKN039 M04/M07 A3031 RMK AO2
Loading
Personal Weather Stations






























Interactive Weather Map New forecast layout! Learn more

10-Day Weather Forecast

Advertisements
Track Severe Weather on mobile